createdAt,value
2018-04-30T00:02:01.953Z,97.00
2018-04-30T00:04:29.790Z,96.90
2018-04-30T00:06:57.374Z,96.90
2018-04-30T00:09:24.922Z,96.90
2018-04-30T00:11:52.541Z,96.70
2018-04-30T00:14:20.060Z,96.70
2018-04-30T00:16:47.605Z,96.70
2018-04-30T00:19:15.151Z,96.70
2018-04-30T00:21:42.733Z,96.70
2018-04-30T00:24:10.276Z,96.70
2018-04-30T00:26:37.835Z,96.50
2018-04-30T00:29:05.432Z,96.40
2018-04-30T00:31:32.966Z,96.40
2018-04-30T00:34:00.519Z,96.50
2018-04-30T00:36:28.108Z,96.50
2018-04-30T00:38:55.652Z,96.50
2018-04-30T00:41:23.198Z,96.50
2018-04-30T00:43:50.782Z,96.60
2018-04-30T00:46:18.330Z,96.60
2018-04-30T00:48:45.873Z,96.70
2018-04-30T00:51:13.449Z,96.60
2018-04-30T00:53:40.998Z,96.80
2018-04-30T00:56:08.547Z,96.50
2018-04-30T00:58:36.140Z,96.50
2018-04-30T01:01:03.685Z,96.50
2018-04-30T01:03:31.274Z,96.50
2018-04-30T01:05:58.811Z,96.40
2018-04-30T01:08:26.361Z,96.40
2018-04-30T01:10:53.909Z,96.40
2018-04-30T01:13:21.516Z,96.40
2018-04-30T01:15:49.062Z,96.40
2018-04-30T01:18:16.611Z,96.40
2018-04-30T01:20:44.197Z,96.50
2018-04-30T01:23:11.737Z,96.60
2018-04-30T01:25:39.296Z,96.40
2018-04-30T01:28:06.892Z,96.50
2018-04-30T01:30:34.431Z,96.30
2018-04-30T01:33:01.977Z,96.30
2018-04-30T01:35:29.615Z,96.30
2018-04-30T01:37:57.097Z,96.40
2018-04-30T01:40:24.643Z,96.40
2018-04-30T01:42:52.734Z,96.40
2018-04-30T01:45:20.277Z,96.40
2018-04-30T01:47:47.825Z,96.50
2018-04-30T01:50:15.405Z,96.50
2018-04-30T01:52:42.948Z,96.40
2018-04-30T01:55:10.489Z,96.30
2018-04-30T01:57:38.835Z,96.20
2018-04-30T02:00:06.380Z,96.20
2018-04-30T02:02:33.931Z,96.20
2018-04-30T02:05:01.816Z,96.10
2018-04-30T02:07:29.369Z,96.00
2018-04-30T02:09:56.916Z,96.00
2018-04-30T02:12:24.497Z,95.90
2018-04-30T02:14:52.041Z,95.90
2018-04-30T02:17:19.592Z,95.90
2018-04-30T02:19:47.178Z,95.80
2018-04-30T02:22:14.725Z,95.90
2018-04-30T02:24:42.327Z,96.00
2018-04-30T02:27:09.880Z,96.00
2018-04-30T02:29:37.426Z,96.00
2018-04-30T02:32:04.967Z,96.00
2018-04-30T02:34:32.643Z,96.00
2018-04-30T02:37:00.189Z,96.00
2018-04-30T02:39:27.741Z,96.10
2018-04-30T02:41:55.324Z,96.10
2018-04-30T02:44:22.885Z,96.20
2018-04-30T02:46:50.423Z,96.20
2018-04-30T02:49:18.033Z,96.10
2018-04-30T02:51:45.577Z,96.10
2018-04-30T02:54:13.121Z,96.10
2018-04-30T02:56:40.707Z,96.30
2018-04-30T02:59:08.247Z,95.90
2018-04-30T03:01:35.797Z,95.80
2018-04-30T03:04:03.371Z,95.80
2018-04-30T03:06:30.921Z,95.80
2018-04-30T03:08:58.460Z,95.80
2018-04-30T03:11:26.046Z,95.80
2018-04-30T03:13:53.594Z,95.80
2018-04-30T03:16:21.135Z,95.60
2018-04-30T03:18:49.481Z,95.60
2018-04-30T03:21:17.026Z,95.60
2018-04-30T03:23:44.577Z,95.70
2018-04-30T03:26:12.169Z,95.60
2018-04-30T03:28:39.698Z,95.70
2018-04-30T03:31:07.248Z,95.70
2018-04-30T03:33:34.837Z,95.70
2018-04-30T03:36:02.376Z,95.70
2018-04-30T03:38:29.918Z,95.80
2018-04-30T03:40:57.508Z,95.80
2018-04-30T03:43:25.055Z,95.90
2018-04-30T03:45:52.597Z,95.80
2018-04-30T03:48:20.177Z,95.80
2018-04-30T03:50:47.711Z,95.80
2018-04-30T03:53:15.259Z,95.80
2018-04-30T03:55:43.612Z,96.00
2018-04-30T03:58:11.160Z,95.70
2018-04-30T04:01:16.125Z,95.70
2018-04-30T04:04:20.648Z,95.80
2018-04-30T04:06:54.229Z,95.60
2018-04-30T04:09:21.781Z,95.50
2018-04-30T04:11:49.336Z,95.40
2018-04-30T04:14:16.970Z,95.40
2018-04-30T04:16:44.478Z,95.40
2018-04-30T04:19:12.028Z,95.40
2018-04-30T04:21:39.601Z,95.40
2018-04-30T04:24:07.159Z,95.50
2018-04-30T04:26:34.717Z,95.50
2018-04-30T04:29:02.294Z,95.50
2018-04-30T04:31:29.853Z,95.60
2018-04-30T04:33:57.545Z,95.70
2018-04-30T04:36:26.011Z,96.10
2018-04-30T04:38:53.559Z,95.70
2018-04-30T04:41:21.106Z,95.70
2018-04-30T04:43:48.681Z,96.00
2018-04-30T04:46:16.534Z,95.90
2018-04-30T04:48:44.087Z,95.60
2018-04-30T04:51:11.681Z,95.60
2018-04-30T04:53:39.263Z,95.60
2018-04-30T04:56:06.817Z,95.60
2018-04-30T04:58:34.384Z,95.60
2018-04-30T05:01:02.704Z,95.50
2018-04-30T05:03:30.254Z,95.40
2018-04-30T05:05:57.838Z,95.50
2018-04-30T05:08:25.376Z,95.50
2018-04-30T05:10:52.951Z,95.60
2018-04-30T05:13:21.264Z,95.80
2018-04-30T05:15:48.814Z,95.70
2018-04-30T05:18:16.358Z,95.80
2018-04-30T05:20:44.430Z,95.80
2018-04-30T05:23:11.990Z,95.90
2018-04-30T05:25:39.686Z,95.90
2018-04-30T05:30:45.533Z,95.90
2018-04-30T05:33:13.072Z,96.00
2018-04-30T05:35:40.617Z,95.90
2018-04-30T05:38:08.238Z,95.90
2018-04-30T05:40:35.799Z,95.90
2018-04-30T05:43:03.353Z,96.00
2018-04-30T05:45:30.938Z,96.20
2018-04-30T05:47:58.535Z,95.90
2018-04-30T05:50:26.050Z,95.80
2018-04-30T05:52:53.645Z,95.60
2018-04-30T05:55:21.951Z,95.50
2018-04-30T05:57:49.492Z,95.50
2018-04-30T06:00:17.090Z,95.50
2018-04-30T06:02:44.642Z,95.50
2018-04-30T06:05:12.186Z,95.60
2018-04-30T06:07:40.140Z,95.50
2018-04-30T06:10:07.703Z,95.40
2018-04-30T06:12:35.242Z,95.80
2018-04-30T06:15:03.639Z,95.10
2018-04-30T06:17:31.953Z,95.20
2018-04-30T06:19:59.512Z,95.20
2018-04-30T06:22:27.108Z,95.20
2018-04-30T06:24:54.653Z,95.20
2018-04-30T06:27:22.200Z,95.10
2018-04-30T06:29:49.801Z,95.00
2018-04-30T06:32:17.364Z,95.10
2018-04-30T06:34:44.917Z,94.90
2018-04-30T06:37:12.523Z,94.90
2018-04-30T06:39:40.072Z,94.90
2018-04-30T06:42:07.619Z,94.90
2018-04-30T06:44:35.987Z,94.80
2018-04-30T06:47:03.541Z,94.80
2018-04-30T06:49:31.110Z,94.80
2018-04-30T06:51:58.714Z,94.80
2018-04-30T06:54:26.298Z,94.70
2018-04-30T06:56:53.812Z,94.60
2018-04-30T06:59:21.464Z,94.90
2018-04-30T07:01:49.780Z,94.80
2018-04-30T07:04:17.379Z,94.50
2018-04-30T07:06:44.992Z,94.60
2018-04-30T07:09:12.590Z,94.70
2018-04-30T07:11:40.105Z,94.80
2018-04-30T07:14:08.573Z,94.50
2018-04-30T07:16:36.151Z,94.30
2018-04-30T07:19:03.662Z,94.30
2018-04-30T07:21:31.262Z,94.20
2018-04-30T07:23:59.595Z,93.70
2018-04-30T07:26:27.133Z,93.70
2018-04-30T07:28:56.048Z,93.70
2018-04-30T07:31:23.608Z,93.50
2018-04-30T07:33:51.155Z,93.50
2018-04-30T07:36:18.743Z,93.60
2018-04-30T07:38:46.296Z,93.50
2018-04-30T07:41:13.838Z,93.40
2018-04-30T07:43:41.461Z,93.50
2018-04-30T07:46:09.038Z,93.50
2018-04-30T07:48:36.624Z,93.60
2018-04-30T07:51:04.214Z,93.60
2018-04-30T07:53:31.756Z,93.50
2018-04-30T07:55:59.302Z,93.60
2018-04-30T07:58:27.313Z,93.50
2018-04-30T08:00:54.826Z,93.20
2018-04-30T08:03:22.387Z,93.30
2018-04-30T08:05:50.748Z,93.40
2018-04-30T08:08:19.084Z,93.40
2018-04-30T08:10:46.643Z,93.30
2018-04-30T08:13:14.279Z,93.20
2018-04-30T08:15:41.829Z,93.00
2018-04-30T08:18:09.378Z,92.70
2018-04-30T08:20:36.997Z,92.50
2018-04-30T08:23:04.614Z,92.30
2018-04-30T08:25:32.161Z,92.20
2018-04-30T08:27:59.785Z,92.20
2018-04-30T08:30:27.339Z,91.80
2018-04-30T08:32:54.893Z,91.70
2018-04-30T08:35:22.495Z,91.30
2018-04-30T08:37:50.799Z,91.60
2018-04-30T08:40:18.349Z,91.60
2018-04-30T08:42:45.966Z,91.30
2018-04-30T08:45:13.523Z,91.10
2018-04-30T08:47:41.091Z,91.00
2018-04-30T08:50:08.685Z,91.10
2018-04-30T08:52:37.000Z,90.40
2018-04-30T08:55:04.543Z,90.40
2018-04-30T08:57:32.135Z,90.50
2018-04-30T08:59:59.677Z,90.80
2018-04-30T09:02:27.227Z,91.00
2018-04-30T09:04:54.823Z,91.30
2018-04-30T09:07:22.360Z,91.50
2018-04-30T09:09:49.903Z,91.70
2018-04-30T09:12:17.495Z,91.60
2018-04-30T09:14:45.039Z,91.40
2018-04-30T09:17:12.925Z,91.50
2018-04-30T09:19:40.527Z,91.10
2018-04-30T09:22:08.841Z,90.50
2018-04-30T09:24:36.394Z,90.70
2018-04-30T09:27:03.992Z,90.90
2018-04-30T09:29:31.543Z,91.00
2018-04-30T09:31:59.089Z,90.60
2018-04-30T09:34:26.700Z,90.60
2018-04-30T09:36:54.240Z,90.70
2018-04-30T09:39:21.795Z,91.10
2018-04-30T09:41:49.940Z,91.20
2018-04-30T09:44:17.483Z,91.60
2018-04-30T09:46:45.800Z,91.50
2018-04-30T09:49:13.491Z,91.40
2018-04-30T09:51:41.736Z,91.40
2018-04-30T09:54:09.283Z,91.40
2018-04-30T09:56:37.678Z,91.30
2018-04-30T09:59:05.223Z,91.20
2018-04-30T10:01:32.761Z,90.80
2018-04-30T10:04:01.158Z,90.30
2018-04-30T10:06:28.695Z,89.90
2018-04-30T10:08:57.016Z,89.40
2018-04-30T10:11:25.505Z,88.60
2018-04-30T10:13:53.050Z,89.60
2018-04-30T10:16:20.597Z,90.00
2018-04-30T10:18:48.192Z,90.50
2018-04-30T10:21:15.762Z,90.50
2018-04-30T10:23:43.332Z,90.20
2018-04-30T10:26:10.902Z,90.00
2018-04-30T10:28:38.509Z,90.30
2018-04-30T10:31:06.004Z,90.40
2018-04-30T10:33:33.634Z,90.10
2018-04-30T10:36:01.172Z,89.80
2018-04-30T10:38:29.487Z,90.40
2018-04-30T10:40:57.082Z,90.30
2018-04-30T10:43:24.628Z,90.50
2018-04-30T10:45:52.256Z,90.70
2018-04-30T10:48:19.770Z,91.10
2018-04-30T10:50:47.312Z,91.10
2018-04-30T10:53:14.856Z,91.50
2018-04-30T10:55:42.452Z,91.80
2018-04-30T10:58:10.002Z,91.80
2018-04-30T11:00:37.547Z,91.60
2018-04-30T11:03:06.133Z,91.80
2018-04-30T11:05:33.695Z,92.10
2018-04-30T11:08:01.243Z,91.90
2018-04-30T11:10:28.829Z,91.50
2018-04-30T11:12:56.459Z,91.30
2018-04-30T11:15:23.934Z,91.50
2018-04-30T11:17:51.565Z,91.40
2018-04-30T11:20:19.877Z,90.80
2018-04-30T11:22:47.422Z,90.80
2018-04-30T11:25:15.031Z,90.20
2018-04-30T11:27:42.678Z,90.00
2018-04-30T11:30:10.132Z,89.00
2018-04-30T11:32:37.735Z,86.50
2018-04-30T11:35:05.287Z,86.40
2018-04-30T11:37:32.837Z,86.70
2018-04-30T11:40:00.994Z,85.90
2018-04-30T11:42:28.538Z,85.20
2018-04-30T11:44:56.089Z,84.90
2018-04-30T11:47:23.678Z,85.10
2018-04-30T11:49:51.223Z,85.10
2018-04-30T11:52:18.795Z,86.10
2018-04-30T11:54:46.415Z,86.70
2018-04-30T11:57:14.165Z,87.70
2018-04-30T11:59:42.476Z,90.10
2018-04-30T12:02:10.075Z,90.10
2018-04-30T12:04:37.614Z,90.30
2018-04-30T12:07:05.161Z,90.50
2018-04-30T12:09:33.151Z,90.70
2018-04-30T12:12:00.695Z,91.30
2018-04-30T12:14:28.245Z,91.60
2018-04-30T12:16:55.843Z,91.70
2018-04-30T12:19:23.401Z,91.30
2018-04-30T12:21:51.012Z,91.40
2018-04-30T12:24:18.585Z,91.40
2018-04-30T12:26:46.104Z,91.40
2018-04-30T12:29:13.647Z,91.50
2018-04-30T12:31:41.251Z,91.10
2018-04-30T12:34:09.574Z,90.80
2018-04-30T12:36:37.136Z,90.70
2018-04-30T12:39:04.743Z,90.80
2018-04-30T12:41:32.289Z,90.60
2018-04-30T12:43:59.845Z,90.90
2018-04-30T12:46:27.427Z,91.00
2018-04-30T12:48:54.979Z,90.90
2018-04-30T12:51:22.518Z,90.80
2018-04-30T12:53:50.118Z,90.40
2018-04-30T12:56:18.430Z,90.00
2018-04-30T12:58:45.978Z,90.00
2018-04-30T13:01:13.995Z,89.50
2018-04-30T13:03:42.628Z,88.10
2018-04-30T13:06:10.170Z,86.30
2018-04-30T13:08:38.534Z,86.10
2018-04-30T13:11:06.078Z,86.00
2018-04-30T13:13:33.621Z,85.80
2018-04-30T13:16:01.228Z,86.20
2018-04-30T13:18:28.782Z,86.90
2018-04-30T13:20:56.331Z,87.50
2018-04-30T13:23:23.961Z,88.20
2018-04-30T13:25:51.513Z,88.30
2018-04-30T13:28:19.056Z,88.40
2018-04-30T13:30:47.106Z,89.10
2018-04-30T13:33:14.647Z,90.00
2018-04-30T13:35:42.198Z,89.70
2018-04-30T13:38:10.250Z,89.70
2018-04-30T13:40:37.791Z,90.00
2018-04-30T13:43:05.337Z,89.80
2018-04-30T13:45:34.211Z,89.00
2018-04-30T13:48:01.757Z,88.90
2018-04-30T13:50:29.301Z,89.30
2018-04-30T13:52:56.901Z,89.40
2018-04-30T13:55:25.242Z,89.20
2018-04-30T13:57:52.803Z,88.50
2018-04-30T14:00:20.402Z,88.30
2018-04-30T14:02:47.959Z,88.70
2018-04-30T14:05:15.497Z,88.30
2018-04-30T14:07:43.655Z,88.50
2018-04-30T14:10:11.201Z,89.00
2018-04-30T14:12:38.749Z,88.70
2018-04-30T14:15:06.371Z,87.70
2018-04-30T14:17:33.918Z,86.90
2018-04-30T14:20:01.532Z,86.80
2018-04-30T14:22:29.102Z,85.40
2018-04-30T14:24:56.640Z,85.50
2018-04-30T14:27:24.950Z,84.20
2018-04-30T14:29:52.885Z,84.10
2018-04-30T14:32:20.431Z,83.90
2018-04-30T14:34:47.969Z,83.20
2018-04-30T14:37:15.577Z,83.20
2018-04-30T14:39:43.137Z,82.90
2018-04-30T14:42:11.455Z,83.40
2018-04-30T14:44:39.099Z,83.20
2018-04-30T14:47:06.589Z,83.30
2018-04-30T14:49:34.126Z,83.50
2018-04-30T14:52:01.771Z,83.10
2018-04-30T14:54:29.300Z,82.70
2018-04-30T14:56:56.844Z,82.70
2018-04-30T14:59:24.441Z,83.00
2018-04-30T15:01:52.005Z,83.10
2018-04-30T15:04:19.604Z,83.30
2018-04-30T15:06:47.505Z,82.70
2018-04-30T15:09:15.061Z,83.00
2018-04-30T15:11:42.605Z,83.50
2018-04-30T15:14:10.208Z,83.10
2018-04-30T15:16:38.524Z,83.90
2018-04-30T15:19:06.070Z,83.90
2018-04-30T15:21:34.079Z,84.60
2018-04-30T15:24:01.621Z,85.40
2018-04-30T15:26:29.209Z,85.80
2018-04-30T15:28:57.180Z,85.90
2018-04-30T15:31:24.757Z,86.10
2018-04-30T15:33:52.278Z,86.20
2018-04-30T15:36:19.869Z,84.90
2018-04-30T15:38:47.417Z,84.90
2018-04-30T15:41:14.963Z,85.90
2018-04-30T15:43:42.935Z,87.10
2018-04-30T15:46:10.484Z,88.50
2018-04-30T15:48:38.069Z,88.00
2018-04-30T15:51:05.620Z,88.30
2018-04-30T15:53:33.163Z,88.80
2018-04-30T15:56:00.710Z,89.40
2018-04-30T15:58:28.304Z,90.00
2018-04-30T16:00:55.852Z,89.90
2018-04-30T16:03:23.398Z,89.90
2018-04-30T16:05:51.294Z,89.80
2018-04-30T16:08:18.838Z,89.90
2018-04-30T16:10:46.377Z,89.70
2018-04-30T16:13:14.378Z,89.40
2018-04-30T16:15:41.925Z,89.20
2018-04-30T16:18:09.469Z,89.00
2018-04-30T16:20:39.513Z,88.80
2018-04-30T16:23:07.061Z,88.30
2018-04-30T16:25:34.614Z,87.50
2018-04-30T16:28:02.246Z,87.60
2018-04-30T16:30:29.804Z,87.00
2018-04-30T16:32:57.347Z,86.30
2018-04-30T16:35:24.941Z,86.10
2018-04-30T16:37:53.253Z,86.60
2018-04-30T16:40:20.801Z,86.00
2018-04-30T16:42:48.399Z,85.90
2018-04-30T16:45:15.951Z,85.80
2018-04-30T16:47:43.501Z,85.50
2018-04-30T16:50:11.084Z,86.10
2018-04-30T16:52:38.629Z,86.30
2018-04-30T16:55:06.168Z,87.00
2018-04-30T16:57:34.698Z,88.00
2018-04-30T17:00:02.217Z,89.00
2018-04-30T17:02:29.756Z,89.40
2018-04-30T17:04:58.115Z,90.20
2018-04-30T17:07:25.689Z,90.10
2018-04-30T17:09:53.194Z,90.40
2018-04-30T17:12:21.269Z,90.50
2018-04-30T17:14:48.809Z,90.70
2018-04-30T17:17:16.348Z,90.80
2018-04-30T17:19:45.179Z,90.90
2018-04-30T17:22:12.753Z,90.90
2018-04-30T17:24:40.260Z,91.00
2018-04-30T17:27:08.635Z,91.10
2018-04-30T17:29:36.202Z,91.10
2018-04-30T17:32:03.713Z,91.00
2018-04-30T17:34:32.088Z,91.00
2018-04-30T17:36:59.627Z,90.90
2018-04-30T17:39:27.163Z,90.70
2018-04-30T17:41:55.520Z,91.00
2018-04-30T17:44:23.077Z,91.00
2018-04-30T17:46:50.638Z,91.10
2018-04-30T17:49:18.214Z,91.70
2018-04-30T17:51:45.772Z,91.70
2018-04-30T17:54:13.342Z,91.50
2018-04-30T17:56:41.254Z,91.30
2018-04-30T17:59:08.788Z,91.40
2018-04-30T18:01:36.327Z,91.60
2018-04-30T18:04:04.901Z,91.60
2018-04-30T18:06:32.457Z,91.70
2018-04-30T18:09:00.015Z,91.80
2018-04-30T18:11:27.604Z,91.50
2018-04-30T18:13:55.907Z,91.10
2018-04-30T18:16:23.448Z,91.10
2018-04-30T18:18:51.110Z,90.80
2018-04-30T18:21:18.617Z,90.80
2018-04-30T18:23:46.163Z,90.90
2018-04-30T18:26:13.758Z,90.90
2018-04-30T18:28:41.301Z,90.80
2018-04-30T18:31:08.840Z,90.90
2018-04-30T18:33:37.362Z,90.90
2018-04-30T18:36:04.876Z,91.00
2018-04-30T18:38:32.421Z,90.80
2018-04-30T18:41:00.773Z,91.00
2018-04-30T18:43:28.322Z,91.00
2018-04-30T18:45:55.858Z,90.90
2018-04-30T18:48:23.482Z,91.00
2018-04-30T18:50:51.800Z,90.90
2018-04-30T18:53:19.335Z,90.90
2018-04-30T18:55:46.957Z,90.90
2018-04-30T18:58:14.504Z,90.90
2018-04-30T19:00:42.072Z,90.90
2018-04-30T19:03:09.625Z,90.70
2018-04-30T19:05:37.178Z,90.80
2018-04-30T19:08:04.727Z,90.50
2018-04-30T19:10:32.319Z,90.40
2018-04-30T19:12:59.899Z,90.30
2018-04-30T19:15:27.404Z,90.20
2018-04-30T19:17:55.036Z,90.20
2018-04-30T19:20:23.347Z,90.20
2018-04-30T19:22:50.891Z,90.20
2018-04-30T19:25:18.507Z,90.10
2018-04-30T19:27:46.063Z,90.10
2018-04-30T19:30:13.651Z,90.10
2018-04-30T19:32:41.198Z,90.00
2018-04-30T19:35:08.750Z,89.70
2018-04-30T19:37:36.281Z,89.10
2018-04-30T19:40:03.908Z,88.40
2018-04-30T19:42:31.428Z,88.60
2018-04-30T19:44:58.968Z,87.90
2018-04-30T19:47:26.604Z,87.10
2018-04-30T19:49:54.154Z,87.10
2018-04-30T19:52:21.709Z,86.50
2018-04-30T19:54:50.078Z,86.10
2018-04-30T19:57:18.389Z,86.20
2018-04-30T19:59:45.945Z,86.20
2018-04-30T20:02:14.053Z,86.00
2018-04-30T20:04:41.598Z,86.10
2018-04-30T20:07:09.139Z,86.40
2018-04-30T20:09:37.594Z,86.30
2018-04-30T20:12:05.097Z,86.40
2018-04-30T20:14:32.649Z,86.40
2018-04-30T20:17:00.839Z,86.70
2018-04-30T20:19:28.400Z,86.80
2018-04-30T20:21:55.921Z,86.80
2018-04-30T20:24:24.266Z,87.20
2018-04-30T20:26:51.863Z,87.10
2018-04-30T20:29:19.358Z,87.20
2018-04-30T20:31:47.888Z,87.40
2018-04-30T20:34:15.430Z,87.50
2018-04-30T20:36:42.975Z,87.00
2018-04-30T20:39:10.571Z,87.00
2018-04-30T20:41:38.131Z,87.20
2018-04-30T20:44:05.670Z,87.10
2018-04-30T20:46:33.254Z,87.00
2018-04-30T20:49:00.809Z,87.20
2018-04-30T20:51:28.349Z,87.50
2018-04-30T20:53:56.707Z,87.60
2018-04-30T20:56:24.244Z,87.60
2018-04-30T20:58:51.782Z,87.70
2018-04-30T21:01:20.151Z,89.20
2018-04-30T21:03:47.702Z,88.40
2018-04-30T21:06:15.252Z,88.60
2018-04-30T21:09:10.571Z,89.30
2018-04-30T21:11:38.108Z,89.60
2018-04-30T21:14:05.650Z,90.00
2018-04-30T21:16:33.232Z,90.20
2018-04-30T21:19:00.771Z,90.40
2018-04-30T21:21:28.328Z,90.60
2018-04-30T21:23:55.961Z,90.70
2018-04-30T21:26:23.512Z,90.80
2018-04-30T21:28:51.054Z,90.90
2018-04-30T21:31:18.676Z,91.00
2018-04-30T21:33:46.226Z,91.00
2018-04-30T21:36:14.527Z,91.00
2018-04-30T21:38:42.117Z,91.00
2018-04-30T21:41:09.658Z,91.00
2018-04-30T21:43:37.192Z,90.90
2018-04-30T21:46:05.703Z,90.90
2018-04-30T21:48:33.244Z,90.80
2018-04-30T21:51:00.787Z,90.90
2018-04-30T21:53:30.458Z,90.90
2018-04-30T21:55:57.991Z,90.90
2018-04-30T21:58:25.527Z,90.70
2018-04-30T22:00:53.479Z,90.60
2018-04-30T22:03:21.795Z,90.90
2018-04-30T22:05:49.331Z,90.60
2018-04-30T22:08:18.149Z,90.60
2018-04-30T22:10:45.682Z,90.60
2018-04-30T22:13:13.990Z,90.60
2018-04-30T22:15:41.563Z,90.60
2018-04-30T22:18:09.107Z,90.60
2018-04-30T22:20:36.644Z,90.70
2018-04-30T22:23:04.221Z,90.70
2018-04-30T22:25:31.761Z,90.70
2018-04-30T22:28:00.069Z,90.80
2018-04-30T22:30:27.666Z,90.70
2018-04-30T22:32:55.215Z,90.80
2018-04-30T22:35:22.764Z,90.80
2018-04-30T22:37:50.337Z,90.90
2018-04-30T22:40:17.888Z,90.90
2018-04-30T22:42:45.423Z,90.90
2018-04-30T22:45:12.997Z,90.90
2018-04-30T22:47:40.542Z,90.90
2018-04-30T22:50:08.085Z,91.00
2018-04-30T22:52:36.433Z,91.10
2018-04-30T22:55:03.971Z,91.00
2018-04-30T22:57:31.523Z,91.00
2018-04-30T22:59:59.110Z,91.00
2018-04-30T23:02:26.657Z,91.30
2018-04-30T23:04:54.329Z,91.20
2018-04-30T23:07:21.913Z,91.10
2018-04-30T23:09:49.458Z,91.10
2018-04-30T23:12:17.004Z,91.20
2018-04-30T23:14:44.601Z,91.20
2018-04-30T23:17:12.143Z,91.10
2018-04-30T23:19:39.697Z,91.20
2018-04-30T23:22:07.281Z,91.20
2018-04-30T23:24:34.858Z,91.30
2018-04-30T23:27:02.373Z,91.30
2018-04-30T23:29:29.946Z,91.30
2018-04-30T23:31:57.492Z,91.40
2018-04-30T23:34:25.049Z,91.20
2018-04-30T23:36:53.063Z,91.20
2018-04-30T23:39:20.590Z,91.30
2018-04-30T23:41:48.131Z,91.30
2018-04-30T23:44:15.708Z,91.30
2018-04-30T23:46:43.251Z,91.30
2018-04-30T23:49:10.792Z,91.30
2018-04-30T23:51:38.368Z,91.30
2018-04-30T23:54:05.904Z,91.40
2018-04-30T23:56:34.222Z,91.50
2018-04-30T23:59:01.808Z,91.50
